Terminal Aerodrome Forecast
Issued by NWS

Home | Current Version | Previous Version | Text Only | Print | Product List | Glossary On
Versions: 1 2 3 4 5 6 7 8 9 10 11 12 13 14
000
FTUS46 KMTR 211100
TAFOAK
TAF
KOAK 211128Z 2112/2218 VRB04KT P6SM SKC
     FM212100 29012KT P6SM SKC
     FM220400 29005KT P6SM SKC=

USA.gov is the U.S. government's official web portal to all federal, state and local government web resources and services.